Time;durP1;ratioP1;P1;durP2;ratioP2;P2;SDS_P1;SDS_P2;PMS_P1;PMS_P2;Temp;Humidity;BMP_temperature;BMP_pressure;BME280_temperature;BME280_humidity;BME280_pressure;Samples;Min_cycle;Max_cycle;Signal;HPM_P1;HPM_P2
2022/10/02 00:00:07;;;;;;;23.25;13.80;;;;;;;10.77;91.16;99437.25;1663544;84;25654;-66
2022/10/02 00:02:49;;;;;;;33.50;26.75;;;;;;;10.76;91.06;99444.58;1668371;84;25627;-68
2022/10/02 00:05:24;;;;;;;21.48;11.88;;;;;;;10.75;91.19;99443.55;1667733;84;26007;-68
2022/10/02 00:08:11;;;;;;;15.68;11.05;;;;;;;10.73;90.99;99443.09;1667775;84;25656;-68
2022/10/02 00:10:52;;;;;;;14.63;10.50;;;;;;;10.72;91.07;99446.34;1668351;84;27441;-66
2022/10/02 00:13:42;;;;;;;12.43;9.58;;;;;;;10.69;90.94;99438.88;1662142;86;25774;-66
2022/10/02 00:16:14;;;;;;;15.10;9.73;;;;;;;10.66;90.92;99442.27;1665150;86;25463;-65
2022/10/02 00:18:41;;;;;;;18.50;9.95;;;;;;;10.67;91.06;99439.00;1666285;86;25668;-67
2022/10/02 00:21:34;;;;;;;13.22;9.55;;;;;;;10.65;91.04;99441.45;1667847;83;25569;-67
2022/10/02 00:24:04;;;;;;;13.30;8.85;;;;;;;10.64;91.03;99443.95;1668486;84;27344;-66
2022/10/02 00:26:41;;;;;;;12.43;9.55;;;;;;;10.61;90.96;99443.25;1667665;84;25645;-66
2022/10/02 00:29:45;;;;;;;15.08;8.95;;;;;;;10.60;91.01;99448.42;1668882;86;25574;-68
2022/10/02 00:32:31;;;;;;;12.98;9.60;;;;;;;10.59;91.04;99445.50;1656833;84;25943;-66
2022/10/02 00:35:31;;;;;;;15.55;9.50;;;;;;;10.59;91.18;99438.73;1666257;86;25502;-66
2022/10/02 00:38:19;;;;;;;12.85;9.43;;;;;;;10.59;91.21;99449.55;1668364;86;27446;-66
2022/10/02 00:41:27;;;;;;;13.65;9.05;;;;;;;10.59;91.50;99449.55;1682771;84;25491;-66
2022/10/02 00:44:10;;;;;;;10.58;8.38;;;;;;;10.58;91.48;99452.59;1678786;85;25503;-66
2022/10/02 00:46:57;;;;;;;12.80;7.97;;;;;;;10.56;91.43;99448.86;1682644;85;25946;-68
2022/10/02 00:49:41;;;;;;;10.38;8.68;;;;;;;10.55;91.65;99448.61;1682227;85;25506;-67
2022/10/02 00:52:40;;;;;;;12.55;9.45;;;;;;;10.56;91.75;99459.67;1608839;89;27531;-66
2022/10/02 00:55:17;;;;;;;11.35;8.30;;;;;;;10.55;91.78;99453.23;1609111;89;25402;-68
2022/10/02 00:57:55;;;;;;;11.03;7.83;;;;;;;10.55;91.81;99455.94;1609017;88;25680;-66
2022/10/02 01:00:22;;;;;;;11.63;8.15;;;;;;;10.53;91.88;99454.91;1600108;88;26138;-66
2022/10/02 01:03:20;;;;;;;10.65;8.38;;;;;;;10.54;91.99;99457.86;1609282;88;25828;-66
2022/10/02 01:05:46;;;;;;;11.70;8.08;;;;;;;10.55;92.03;99456.73;1554113;92;27386;-67
2022/10/02 01:08:13;;;;;;;11.43;8.90;;;;;;;10.56;92.02;99458.89;1569182;91;27482;-67
2022/10/02 01:10:40;;;;;;;12.88;8.18;;;;;;;10.57;92.09;99461.27;1530906;93;25580;-67
2022/10/02 01:13:06;;;;;;;14.28;9.03;;;;;;;10.57;92.14;99461.27;1580792;89;25994;-67
2022/10/02 01:15:38;;;;;;;12.15;9.68;;;;;;;10.55;92.18;99463.48;1598471;89;25525;-67
2022/10/02 01:18:06;;;;;;;12.07;9.38;;;;;;;10.53;92.07;99463.03;1598563;89;26937;-67
2022/10/02 01:20:43;;;;;;;12.23;9.88;;;;;;;10.54;92.23;99468.68;1584362;89;25496;-67
2022/10/02 01:23:26;;;;;;;12.63;9.45;;;;;;;10.55;92.36;99471.59;1598442;89;25756;-67
2022/10/02 01:25:53;;;;;;;14.03;10.38;;;;;;;10.55;92.33;99473.52;1598236;89;26006;-67
2022/10/02 01:28:20;;;;;;;15.55;9.83;;;;;;;10.55;92.48;99469.46;1610736;87;25765;-67
2022/10/02 01:30:51;;;;;;;14.30;10.90;;;;;;;10.55;92.44;99469.46;1646108;87;26977;-67
2022/10/02 01:33:18;;;;;;;17.25;12.35;;;;;;;10.55;92.59;99468.11;1624772;87;25460;-66
2022/10/02 01:35:45;;;;;;;17.80;11.50;;;;;;;10.54;92.54;99475.44;1624451;87;25672;-66
2022/10/02 01:38:16;;;;;;;19.20;12.00;;;;;;;10.52;92.51;99477.69;1624465;87;26168;-69
2022/10/02 01:40:43;;;;;;;17.17;12.88;;;;;;;10.54;92.66;99478.69;1728256;82;25373;-69
2022/10/02 01:43:26;;;;;;;21.10;12.98;;;;;;;10.55;92.74;99478.92;1743511;82;27327;-66
2022/10/02 01:46:30;;;;;;;17.25;12.93;;;;;;;10.55;92.72;99476.22;1743764;82;25739;-68
2022/10/02 01:49:29;;;;;;;20.88;12.58;;;;;;;10.55;92.68;99481.06;1738379;82;25738;-68
2022/10/02 01:52:07;;;;;;;20.10;13.78;;;;;;;10.55;92.96;99477.00;1734877;82;25941;-66
2022/10/02 01:54:51;;;;;;;19.05;13.22;;;;;;;10.54;92.86;99487.61;1734345;82;25597;-68
2022/10/02 01:57:49;;;;;;;17.52;13.18;;;;;;;10.55;92.98;99482.98;1737879;82;27398;-67
2022/10/02 02:00:23;;;;;;;19.90;14.05;;;;;;;10.54;93.09;99485.44;1742841;82;25343;-68
2022/10/02 02:03:19;;;;;;;18.10;14.78;;;;;;;10.55;93.18;99491.88;1744371;81;25557;-67
2022/10/02 02:06:08;;;;;;;22.95;14.58;;;;;;;10.54;93.10;99494.91;1739616;82;26110;-68
2022/10/02 02:08:49;;;;;;;20.90;15.32;;;;;;;10.54;93.19;99494.37;1732167;82;25463;-68
2022/10/02 02:11:19;;;;;;;17.48;14.18;;;;;;;10.55;93.17;99501.91;1741703;82;27262;-68
2022/10/02 02:14:13;;;;;;;21.50;15.00;;;;;;;10.55;93.32;99506.75;1717946;82;25544;-68
2022/10/02 02:16:51;;;;;;;21.40;13.98;;;;;;;10.54;93.22;99505.72;1735605;82;26000;-67
2022/10/02 02:19:31;;;;;;;18.90;14.13;;;;;;;10.54;93.26;99509.78;1731015;82;25993;-67
2022/10/02 02:22:15;;;;;;;18.70;13.55;;;;;;;10.56;93.43;99508.34;1722880;82;25948;-67
2022/10/02 02:24:55;;;;;;;17.55;13.88;;;;;;;10.55;93.30;99510.02;1717370;82;27381;-68
2022/10/02 02:27:26;;;;;;;18.30;13.22;;;;;;;10.56;93.37;99513.75;1719777;82;25715;-68
2022/10/02 02:30:04;;;;;;;17.20;13.68;;;;;;;10.56;93.41;99510.27;1723099;82;25575;-67
2022/10/02 02:32:35;;;;;;;20.77;12.78;;;;;;;10.57;93.35;99512.64;1735879;82;26014;-68
2022/10/02 02:35:07;;;;;;;16.32;13.30;;;;;;;10.58;93.31;99515.56;1736478;82;25458;-67
2022/10/02 02:37:37;;;;;;;15.30;12.07;;;;;;;10.59;93.34;99515.00;1735366;82;27410;-66
2022/10/02 02:40:10;;;;;;;16.05;12.73;;;;;;;10.58;93.16;99511.51;1712681;82;27122;-66
2022/10/02 02:42:41;;;;;;;15.58;12.88;;;;;;;10.59;92.99;99516.34;1704649;83;25419;-68
2022/10/02 02:45:20;;;;;;;13.53;12.00;;;;;;;10.59;93.09;99516.34;1710187;82;25979;-68
2022/10/02 02:47:54;;;;;;;14.93;11.85;;;;;;;10.58;92.93;99518.84;1720538;82;25420;-68
2022/10/02 02:50:35;;;;;;;15.80;12.58;;;;;;;10.56;92.83;99515.67;1692803;84;27494;-68
2022/10/02 02:53:21;;;;;;;16.65;13.85;;;;;;;10.56;92.76;99521.87;1701822;83;27164;-67
2022/10/02 02:56:00;;;;;;;19.55;12.68;;;;;;;10.54;92.84;99529.52;1695863;83;25409;-67
2022/10/02 02:58:38;;;;;;;15.18;12.50;;;;;;;10.52;92.98;99527.70;1700388;83;28152;-67
2022/10/02 03:01:04;;;;;;;16.30;12.73;;;;;;;10.51;92.94;99528.81;1700527;83;25591;-66
2022/10/02 03:03:31;;;;;;;17.45;13.00;;;;;;;10.52;93.07;99537.17;1702353;83;27590;-66
2022/10/02 03:06:32;;;;;;;20.50;14.35;;;;;;;10.52;93.21;99529.59;1704296;83;25741;-66
2022/10/02 03:09:00;;;;;;;15.03;12.98;;;;;;;10.52;93.26;99534.47;1691533;84;25452;-68
2022/10/02 03:11:59;;;;;;;16.40;12.37;;;;;;;10.51;93.10;99524.76;1693594;84;26139;-67
2022/10/02 03:14:57;;;;;;;14.83;12.73;;;;;;;10.48;92.87;99525.41;1689771;84;25737;-67
2022/10/02 03:18:04;;;;;;;14.55;12.47;;;;;;;10.45;92.71;99522.00;1692501;84;28133;-68
2022/10/02 03:20:38;;;;;;;17.05;12.15;;;;;;;10.42;92.72;99531.56;1675964;85;25717;-68
2022/10/02 03:23:13;;;;;;;16.02;12.35;;;;;;;10.40;92.73;99524.89;1676157;85;25659;-68
2022/10/02 03:25:53;;;;;;;17.30;12.78;;;;;;;10.38;92.70;99523.86;1676620;85;25527;-68
2022/10/02 03:28:36;;;;;;;14.98;11.63;;;;;;;10.37;92.86;99521.48;1691329;84;25756;-68
2022/10/02 03:31:03;;;;;;;20.72;13.75;;;;;;;10.36;92.87;99519.34;1692292;84;27512;-66
2022/10/02 03:33:32;;;;;;;16.20;13.18;;;;;;;10.35;92.78;99527.23;1688100;84;25862;-68
2022/10/02 03:36:00;;;;;;;14.83;13.25;;;;;;;10.34;92.76;99532.41;1676696;85;25439;-66
2022/10/02 03:38:28;;;;;;;16.35;13.25;;;;;;;10.32;92.93;99531.94;1657282;85;25996;-67
2022/10/02 03:40:57;;;;;;;20.12;13.78;;;;;;;10.32;93.04;99532.48;1668624;85;25474;-67
2022/10/02 03:43:27;;;;;;;18.82;13.75;;;;;;;10.34;93.19;99528.91;1703491;84;27341;-67
2022/10/02 03:45:53;;;;;;;20.60;15.00;;;;;;;10.33;93.34;99532.72;1702561;82;25547;-66
2022/10/02 03:48:20;;;;;;;18.02;14.50;;;;;;;10.34;93.47;99535.67;1730165;82;25541;-67
2022/10/02 03:50:49;;;;;;;19.07;15.35;;;;;;;10.34;93.51;99539.16;1729074;82;25517;-67
2022/10/02 03:53:21;;;;;;;20.35;15.50;;;;;;;10.36;93.72;99532.08;1729632;83;33908;-67
2022/10/02 03:56:08;;;;;;;20.27;15.63;;;;;;;10.36;93.84;99527.45;1720239;83;27983;-67
2022/10/02 03:58:39;;;;;;;19.85;15.23;;;;;;;10.36;93.84;99530.73;1729523;83;25635;-68
2022/10/02 04:01:11;;;;;;;19.37;14.78;;;;;;;10.38;93.96;99531.97;1729514;83;25603;-68
2022/10/02 04:03:48;;;;;;;16.80;14.80;;;;;;;10.39;94.02;99534.92;1718012;82;26827;-68
2022/10/02 04:06:38;;;;;;;21.05;15.53;;;;;;;10.40;94.09;99541.92;1729288;83;25463;-68
2022/10/02 04:09:19;;;;;;;22.70;16.05;;;;;;;10.42;94.28;99535.63;1729054;83;27359;-68
2022/10/02 04:12:09;;;;;;;17.60;14.90;;;;;;;10.44;94.19;99540.70;1730099;83;25502;-68
2022/10/02 04:14:54;;;;;;;20.90;16.32;;;;;;;10.44;94.31;99542.84;1699708;83;25318;-66
2022/10/02 04:17:43;;;;;;;23.92;16.23;;;;;;;10.46;94.36;99543.30;1718749;83;25948;-68
2022/10/02 04:20:25;;;;;;;19.17;16.35;;;;;;;10.48;94.46;99543.55;1716337;83;25768;-66
2022/10/02 04:22:56;;;;;;;24.87;17.25;;;;;;;10.48;94.57;99542.98;1729790;83;27418;-66
2022/10/02 04:25:31;;;;;;;22.42;17.45;;;;;;;10.50;94.71;99544.80;1730133;82;25625;-66
2022/10/02 04:28:14;;;;;;;24.02;17.73;;;;;;;10.51;94.67;99548.31;1730200;82;25169;-67
2022/10/02 04:30:41;;;;;;;25.12;18.45;;;;;;;10.53;94.73;99548.20;1720677;82;25917;-67
2022/10/02 04:33:23;;;;;;;25.08;17.45;;;;;;;10.57;94.71;99552.39;1729095;82;25418;-67
2022/10/02 04:36:24;;;;;;;25.92;18.15;;;;;;;10.58;94.73;99557.48;1729065;82;28258;-66
2022/10/02 04:39:17;;;;;;;29.00;17.35;;;;;;;10.59;94.83;99552.31;1726894;82;25637;-67
2022/10/02 04:42:30;;;;;;;23.25;18.35;;;;;;;10.61;94.82;99555.48;1740709;82;25777;-66
2022/10/02 04:45:26;;;;;;;20.55;16.87;;;;;;;10.61;94.92;99556.83;1695469;84;28128;-66
2022/10/02 04:48:20;;;;;;;19.32;16.97;;;;;;;10.62;94.85;99556.27;1695866;84;25795;-67
2022/10/02 04:51:36;;;;;;;29.00;17.87;;;;;;;10.63;94.87;99560.56;1664684;85;28159;-66
2022/10/02 04:54:14;;;;;;;24.20;16.60;;;;;;;10.64;95.06;99559.42;1668358;85;25752;-66
2022/10/02 04:57:21;;;;;;;23.40;17.20;;;;;;;10.64;95.08;99562.95;1668293;85;25914;-66
2022/10/02 05:00:20;;;;;;;21.37;16.65;;;;;;;10.65;95.17;99565.08;1651582;85;25570;-68
2022/10/02 05:02:57;;;;;;;20.27;16.87;;;;;;;10.66;95.24;99558.56;1664491;85;25451;-68
2022/10/02 05:05:56;;;;;;;18.42;15.08;;;;;;;10.67;95.16;99567.46;1668449;84;27591;-66
2022/10/02 05:08:53;;;;;;;17.70;14.87;;;;;;;10.67;95.23;99564.76;1648372;85;27144;-68
2022/10/02 05:11:33;;;;;;;17.82;15.20;;;;;;;10.67;95.36;99570.95;1649243;86;25447;-67
2022/10/02 05:14:35;;;;;;;18.20;15.78;;;;;;;10.68;95.36;99572.55;1609099;87;26742;-68
2022/10/02 05:17:28;;;;;;;19.57;16.23;;;;;;;10.67;95.37;99572.30;1580365;90;25707;-67
2022/10/02 05:19:59;;;;;;;18.00;15.43;;;;;;;10.68;95.51;99577.95;1583857;89;27436;-68
2022/10/02 05:22:48;;;;;;;18.05;15.95;;;;;;;10.69;95.56;99581.44;1573985;89;25994;-68
2022/10/02 05:25:38;;;;;;;18.87;16.45;;;;;;;10.70;95.58;99585.17;1562773;90;25699;-68
2022/10/02 05:28:24;;;;;;;21.52;16.60;;;;;;;10.73;95.62;99579.69;1561893;90;26248;-68
2022/10/02 05:31:17;;;;;;;19.50;16.62;;;;;;;10.75;95.84;99581.50;1590915;88;25564;-68
2022/10/02 05:34:06;;;;;;;17.17;15.08;;;;;;;10.75;95.73;99582.28;1613854;88;28183;-68
2022/10/02 05:36:46;;;;;;;22.37;16.25;;;;;;;10.74;95.72;99583.39;1627466;86;25471;-69
2022/10/02 05:39:26;;;;;;;19.55;16.37;;;;;;;10.75;95.72;99592.32;1626817;86;25708;-67
2022/10/02 05:42:01;;;;;;;19.02;16.30;;;;;;;10.75;95.88;99590.97;1629584;87;26807;-68
2022/10/02 05:44:37;;;;;;;19.02;15.75;;;;;;;10.78;96.13;99593.02;1631827;86;25497;-69
2022/10/02 05:47:23;;;;;;;18.15;15.25;;;;;;;10.77;96.01;99597.63;1631705;87;27872;-68
2022/10/02 05:50:01;;;;;;;16.50;14.55;;;;;;;10.79;96.24;99596.73;1631623;87;25732;-69
2022/10/02 05:52:52;;;;;;;20.00;15.03;;;;;;;10.81;96.20;99599.92;1637879;84;25595;-67
2022/10/02 05:55:42;;;;;;;19.70;15.48;;;;;;;10.83;96.23;99605.80;1716106;83;28104;-68
2022/10/02 05:58:44;;;;;;;17.52;13.72;;;;;;;10.86;96.28;99608.95;1721364;82;25666;-67
2022/10/02 06:01:29;;;;;;;20.68;15.68;;;;;;;10.88;96.32;99613.48;1681436;84;29586;-68
2022/10/02 06:04:23;;;;;;;18.52;15.28;;;;;;;10.89;96.36;99609.09;1727811;82;25750;-68
2022/10/02 06:06:53;;;;;;;16.48;14.07;;;;;;;10.90;96.47;99605.28;1703750;83;25637;-68
2022/10/02 06:09:25;;;;;;;17.17;14.50;;;;;;;10.92;96.48;99611.72;1721939;83;25990;-69
2022/10/02 06:12:25;;;;;;;17.92;14.23;;;;;;;10.95;96.65;99609.72;1720154;82;25548;-69
2022/10/02 06:15:01;;;;;;;21.25;15.83;;;;;;;10.95;96.47;99614.56;1721958;83;28380;-69
2022/10/02 06:17:36;;;;;;;20.27;14.50;;;;;;;10.97;96.62;99613.67;1699857;83;26481;-69
2022/10/02 06:20:17;;;;;;;25.77;17.27;;;;;;;10.99;96.68;99610.64;1693200;83;25481;-67
2022/10/02 06:23:06;;;;;;;19.92;15.28;;;;;;;11.02;96.57;99614.05;1712399;83;25931;-68
2022/10/02 06:25:39;;;;;;;;;;;;;;;11.04;96.61;99621.27;1732187;82;25389;-68
2022/10/02 06:28:16;;;;;;;15.75;12.73;;;;;;;11.07;96.66;99617.91;1738680;82;27503;-67
2022/10/02 06:30:48;;;;;;;14.78;11.73;;;;;;;11.08;96.69;99622.75;1709293;82;25813;-67
2022/10/02 06:33:28;;;;;;;13.95;12.55;;;;;;;11.09;96.56;99618.94;1738179;82;25630;-68
2022/10/02 06:36:15;;;;;;;12.10;10.85;;;;;;;11.11;96.59;99620.75;1727094;82;25991;-67
2022/10/02 06:39:14;;;;;;;12.68;10.90;;;;;;;11.14;96.73;99621.45;1714369;82;25412;-67
2022/10/02 06:42:01;;;;;;;11.10;9.90;;;;;;;11.14;96.63;99621.45;1737069;82;26879;-66
2022/10/02 06:45:04;;;;;;;12.68;10.10;;;;;;;11.14;96.73;99623.59;1702850;83;25661;-66
2022/10/02 06:48:05;;;;;;;10.78;9.68;;;;;;;11.20;96.99;99628.23;1710032;83;25760;-68
2022/10/02 06:50:52;;;;;;;11.33;10.05;;;;;;;11.22;96.80;99628.73;1725521;82;25939;-67
2022/10/02 06:53:24;;;;;;;13.35;10.30;;;;;;;11.22;96.62;99634.14;1716459;83;25705;-67
2022/10/02 06:56:00;;;;;;;11.45;10.25;;;;;;;11.23;96.60;99638.98;1711507;83;27408;-67
2022/10/02 06:59:09;;;;;;;11.63;10.23;;;;;;;11.25;96.74;99639.44;1711537;83;26051;-68
2022/10/02 07:01:50;;;;;;;12.15;10.08;;;;;;;11.26;96.78;99641.83;1723228;83;25611;-67
2022/10/02 07:04:45;;;;;;;11.43;9.80;;;;;;;11.27;96.71;99643.42;1576706;90;26004;-66
2022/10/02 07:07:40;;;;;;;15.88;11.03;;;;;;;11.29;96.84;99647.12;1612365;88;25758;-68
2022/10/02 07:10:38;;;;;;;16.45;13.28;;;;;;;11.30;96.93;99648.72;1630221;87;29506;-68
2022/10/02 07:13:22;;;;;;;15.53;12.10;;;;;;;11.32;96.93;99651.34;1632355;87;25657;-68
2022/10/02 07:16:10;;;;;;;16.62;12.03;;;;;;;11.33;96.83;99656.19;1620905;87;25804;-68
2022/10/02 07:19:22;;;;;;;16.97;12.85;;;;;;;11.34;96.95;99661.28;1628096;87;26631;-69
2022/10/02 07:22:25;;;;;;;16.20;11.40;;;;;;;11.38;97.14;99664.91;1598562;89;25908;-67
2022/10/02 07:25:32;;;;;;;27.95;18.20;;;;;;;11.44;97.31;99660.64;1611168;87;25918;-67
2022/10/02 07:28:26;;;;;;;17.65;12.53;;;;;;;11.45;97.10;99666.30;1577637;90;25497;-68
2022/10/02 07:31:17;;;;;;;15.43;10.55;;;;;;;11.48;97.26;99667.78;1615444;88;25685;-67
2022/10/02 07:33:59;;;;;;;11.40;9.43;;;;;;;11.51;97.40;99663.61;1587235;89;25954;-67
2022/10/02 07:40:18;;;;;;;16.90;12.85;;;;;;;11.53;97.04;99669.52;1645067;85;27360;-67
2022/10/02 07:43:06;;;;;;;15.65;10.23;;;;;;;11.56;97.27;99671.54;1743682;81;25711;-68
2022/10/02 07:45:42;;;;;;;13.83;11.20;;;;;;;11.61;97.52;99672.69;1757746;81;25565;-68
2022/10/02 07:48:36;;;;;;;12.15;9.85;;;;;;;11.68;97.65;99680.30;1757373;81;26113;-67
2022/10/02 07:54:41;;;;;;;17.67;12.30;;;;;;;11.69;96.80;99690.80;1716298;83;28354;-67
2022/10/02 07:57:21;;;;;;;14.35;11.48;;;;;;;11.71;96.92;99676.92;1712764;83;25784;-68
2022/10/02 07:59:54;;;;;;;17.82;11.68;;;;;;;11.81;97.70;99681.16;1727574;82;25663;-67
2022/10/02 08:02:36;;;;;;;14.75;11.18;;;;;;;11.92;97.99;99687.23;1702274;84;26258;-67
2022/10/02 08:05:08;;;;;;;14.05;10.10;;;;;;;12.04;98.15;99678.92;1716285;82;25609;-66
2022/10/02 08:07:35;;;;;;;12.95;10.20;;;;;;;12.11;97.38;99679.17;1729193;82;27308;-66
2022/10/02 08:10:06;;;;;;;16.20;10.25;;;;;;;12.18;97.40;99688.11;1721571;82;25527;-66
2022/10/02 08:12:39;;;;;;;11.90;8.85;;;;;;;12.20;96.43;99677.15;1687464;82;25510;-68
2022/10/02 08:15:10;;;;;;;13.25;8.83;;;;;;;12.19;95.72;99694.56;1709632;82;26786;-67
2022/10/02 08:17:49;;;;;;;13.60;9.28;;;;;;;12.20;95.61;99687.99;1729588;82;25703;-68
2022/10/02 08:20:35;;;;;;;11.15;7.85;;;;;;;12.25;95.97;99688.36;1729353;82;27312;-66
2022/10/02 08:23:25;;;;;;;17.35;7.83;;;;;;;12.27;95.23;99694.23;1727426;82;25651;-67
2022/10/02 08:26:12;;;;;;;12.30;7.62;;;;;;;12.24;94.53;99693.00;1773227;80;25683;-67
2022/10/02 08:29:04;;;;;;;14.85;8.78;;;;;;;12.23;94.50;99693.33;1767414;80;26293;-68
2022/10/02 08:31:32;;;;;;;13.40;7.20;;;;;;;12.23;94.44;99698.75;1779295;80;25622;-65
2022/10/02 08:34:13;;;;;;;25.35;7.17;;;;;;;12.25;94.46;99698.63;1789958;80;27395;-67
2022/10/02 08:36:51;;;;;;;12.65;7.00;;;;;;;12.25;94.11;99701.34;1789473;80;25288;-67
2022/10/02 08:39:28;;;;;;;14.23;7.33;;;;;;;12.23;93.83;99698.17;1773244;80;25928;-68
2022/10/02 08:42:25;;;;;;;13.10;6.60;;;;;;;12.24;93.77;99703.84;1762802;80;25985;-67
2022/10/02 08:45:06;;;;;;;6.90;5.60;;;;;;;12.25;93.77;99700.55;1767270;80;25636;-66
2022/10/02 08:48:19;;;;;;;9.13;5.03;;;;;;;12.25;93.35;99705.98;1779648;80;27691;-66
2022/10/02 08:51:26;;;;;;;6.80;4.95;;;;;;;12.20;92.62;99700.20;1644397;86;25756;-67
2022/10/02 08:54:16;;;;;;;9.18;5.47;;;;;;;12.15;92.46;99704.47;1637485;86;25776;-66
2022/10/02 08:57:11;;;;;;;9.03;5.17;;;;;;;12.14;92.63;99703.69;1626680;86;25801;-67
2022/10/02 09:00:10;;;;;;;10.20;5.90;;;;;;;12.14;92.42;99705.61;1653809;85;25688;-67
2022/10/02 09:03:17;;;;;;;10.93;6.00;;;;;;;12.14;92.75;99703.69;1654009;85;29485;-66
2022/10/02 09:06:24;;;;;;;8.37;4.70;;;;;;;12.20;93.29;99705.62;1651575;85;26154;-66
2022/10/02 09:09:25;;;;;;;6.28;4.45;;;;;;;12.22;92.84;99711.49;1666960;85;25679;-67
2022/10/02 09:12:28;;;;;;;10.25;4.12;;;;;;;12.25;92.57;99705.41;1660809;85;26672;-68
2022/10/02 09:15:19;;;;;;;7.67;4.08;;;;;;;12.31;92.31;99710.86;1657347;85;25771;-66
2022/10/02 09:18:06;;;;;;;10.28;4.25;;;;;;;12.39;92.56;99713.23;1651819;85;27434;-66
2022/10/02 09:20:47;;;;;;;8.55;3.98;;;;;;;12.47;92.62;99708.30;1661601;85;26316;-65
2022/10/02 09:23:33;;;;;;;9.80;4.28;;;;;;;12.61;92.49;99709.33;1661117;85;26284;-65
2022/10/02 09:26:30;;;;;;;11.30;3.75;;;;;;;12.74;92.51;99706.09;1723503;82;25947;-66
2022/10/02 09:29:37;;;;;;;11.08;3.80;;;;;;;12.85;91.89;99701.00;1726277;82;25703;-66
2022/10/02 09:32:42;;;;;;;10.20;3.62;;;;;;;12.97;91.09;99701.00;1724709;82;27348;-67
2022/10/02 09:35:35;;;;;;;12.00;3.75;;;;;;;13.05;89.62;99707.45;1692013;84;26399;-67
2022/10/02 09:38:37;;;;;;;8.48;3.72;;;;;;;13.12;89.04;99698.75;1725659;82;25787;-66
2022/10/02 09:41:23;;;;;;;9.98;3.45;;;;;;;13.24;88.71;99701.45;1772202;80;25929;-67
2022/10/02 09:44:46;;;;;;;6.53;3.98;;;;;;;13.27;87.32;99700.20;1751659;80;25713;-67
2022/10/02 09:48:00;;;;;;;7.58;3.20;;;;;;;13.21;86.70;99699.41;1767408;80;27978;-67
2022/10/02 09:50:54;;;;;;;6.08;3.25;;;;;;;13.21;86.75;99698.05;1757750;80;25718;-68
2022/10/02 09:54:05;;;;;;;7.72;3.87;;;;;;;13.25;86.53;99689.47;1696857;84;25711;-68
2022/10/02 09:56:46;;;;;;;5.03;2.70;;;;;;;13.33;86.61;99700.80;1686643;84;28132;-69
2022/10/02 09:59:57;;;;;;;8.43;3.15;;;;;;;13.41;85.65;99685.50;1654804;85;25742;-69
2022/10/02 10:02:38;;;;;;;;;;;;;;;13.53;86.31;99690.12;1688923;84;27331;-68
2022/10/02 10:05:34;;;;;;;11.57;3.42;;;;;;;13.89;86.24;99700.66;1696113;84;25768;-68
2022/10/02 10:08:09;;;;;;;10.18;5.05;;;;;;;14.12;86.39;99692.75;1675507;84;25756;-68
2022/10/02 10:11:09;;;;;;;8.80;3.12;;;;;;;14.37;87.15;99694.20;1661315;85;25910;-68
2022/10/02 10:17:12;;;;;;;5.45;2.40;;;;;;;14.81;86.21;99688.50;1646841;86;27416;-68
2022/10/02 10:19:58;;;;;;;12.43;4.42;;;;;;;15.71;86.88;99683.11;1618580;87;26179;-68
2022/10/02 10:22:38;;;;;;;7.58;3.52;;;;;;;16.35;88.79;99682.23;1638227;87;26203;-68
2022/10/02 10:25:35;;;;;;;10.25;5.80;;;;;;;17.42;87.79;99674.17;1676580;84;25783;-67
2022/10/02 10:28:22;;;;;;;8.90;3.37;;;;;;;18.42;85.76;99676.48;1711729;83;25814;-67
2022/10/02 10:31:03;;;;;;;4.35;2.00;;;;;;;19.46;81.11;99662.76;1714116;83;27378;-68
2022/10/02 10:34:17;;;;;;;11.97;8.50;;;;;;;20.15;77.19;99664.01;1699995;84;25920;-68
2022/10/02 10:40:37;;;;;;;6.12;2.25;;;;;;;20.49;68.95;99661.52;1717082;83;26501;-67
2022/10/02 10:43:31;;;;;;;5.62;2.65;;;;;;;20.02;67.56;99666.14;1689408;84;25685;-67
2022/10/02 10:46:30;;;;;;;4.37;2.17;;;;;;;19.41;66.99;99674.31;1679847;82;28158;-68
2022/10/02 10:49:21;;;;;;;7.37;2.83;;;;;;;18.93;66.95;99682.60;1702173;82;27182;-68
2022/10/02 10:52:24;;;;;;;2.37;1.40;;;;;;;18.35;67.51;99686.77;1701978;82;25725;-69
2022/10/02 10:55:27;;;;;;;4.97;1.60;;;;;;;17.68;67.16;99669.80;1750270;81;26617;-69
2022/10/02 10:58:27;;;;;;;8.33;1.80;;;;;;;17.16;68.89;99660.73;1758075;81;25687;-68
2022/10/02 11:01:02;;;;;;;5.10;2.55;;;;;;;17.61;76.18;99660.93;1719833;81;27396;-68
2022/10/02 11:03:43;;;;;;;2.87;1.60;;;;;;;18.63;77.16;99663.58;1740526;81;25853;-68
2022/10/02 11:06:37;;;;;;;5.85;1.90;;;;;;;19.47;75.96;99654.16;1737734;81;25766;-68
2022/10/02 11:09:25;;;;;;;4.12;2.00;;;;;;;20.20;74.31;99658.73;1676064;84;26189;-70
2022/10/02 11:12:12;;;;;;;5.05;2.27;;;;;;;20.45;71.47;99655.22;1641945;87;25823;-68
2022/10/02 11:15:11;;;;;;;9.33;7.10;;;;;;;20.50;69.31;99658.97;1670472;84;27291;-68
2022/10/02 11:18:14;;;;;;;7.25;5.47;;;;;;;20.41;67.72;99647.58;1688396;83;25509;-68
2022/10/02 11:21:15;;;;;;;6.45;2.60;;;;;;;20.03;66.30;99646.53;1653471;85;25829;-69
2022/10/02 11:24:12;;;;;;;6.55;2.20;;;;;;;19.51;65.16;99654.97;1663136;85;26805;-68
2022/10/02 11:27:04;;;;;;;5.95;2.42;;;;;;;18.92;64.83;99661.87;1688411;84;25720;-69
2022/10/02 11:29:56;;;;;;;5.60;2.40;;;;;;;18.21;64.27;99667.48;1642994;86;27996;-69
2022/10/02 11:32:44;;;;;;;2.98;1.70;;;;;;;17.54;64.56;99662.99;1621380;88;25471;-68
2022/10/02 11:35:28;;;;;;;10.43;2.90;;;;;;;17.23;66.93;99664.71;1594484;88;25681;-70
2022/10/02 11:38:18;;;;;;;6.05;2.87;;;;;;;17.55;69.10;99659.11;1590453;88;25701;-66
2022/10/02 11:41:19;;;;;;;5.58;2.20;;;;;;;17.98;68.19;99656.68;1600154;88;25852;-65
2022/10/02 11:44:05;;;;;;;7.17;2.95;;;;;;;18.31;68.38;99664.06;1566908;91;27506;-66
2022/10/02 11:46:52;;;;;;;6.42;2.10;;;;;;;18.18;66.46;99658.06;1597790;88;25817;-69
2022/10/02 11:49:45;;;;;;;5.25;1.87;;;;;;;18.01;66.31;99655.34;1615396;88;25711;-68
2022/10/02 11:53:00;;;;;;;8.60;3.10;;;;;;;17.65;65.11;99657.65;1615443;88;26374;-68
2022/10/02 11:55:57;;;;;;;6.50;2.00;;;;;;;17.36;65.91;99657.87;1608971;88;25735;-68
2022/10/02 11:58:53;;;;;;;5.05;2.12;;;;;;;17.04;65.67;99658.20;1604681;88;28328;-67
2022/10/02 12:01:37;;;;;;;5.53;2.37;;;;;;;16.75;66.25;99655.58;1614400;88;25722;-69
2022/10/02 12:04:53;;;;;;;5.70;3.22;;;;;;;16.47;66.29;99660.02;1614982;88;25666;-69
2022/10/02 12:07:34;;;;;;;29.57;27.98;;;;;;;16.39;68.17;99655.77;1608991;88;26010;-67
2022/10/02 12:10:38;;;;;;;5.28;3.85;;;;;;;16.53;68.73;99655.81;1619883;87;25829;-66
2022/10/02 12:13:14;;;;;;;4.42;2.30;;;;;;;16.48;68.02;99646.56;1621293;88;27307;-66
2022/10/02 12:15:49;;;;;;;4.15;3.45;;;;;;;16.25;67.51;99654.17;1613792;88;25810;-66
2022/10/02 12:18:44;;;;;;;39.42;37.10;;;;;;;16.08;67.71;99644.52;1587439;89;25817;-67
2022/10/02 12:28:05;;;;;;;6.58;5.97;;;;;;;16.15;70.35;99647.95;1759759;80;27269;-68
2022/10/02 12:30:47;;;;;;;9.08;2.55;;;;;;;16.50;68.69;99646.98;1746461;81;25400;-67
2022/10/02 12:33:43;;;;;;;4.30;2.00;;;;;;;16.42;66.86;99643.36;1740248;81;25379;-68
2022/10/02 12:36:47;;;;;;;5.83;2.58;;;;;;;16.29;66.90;99644.69;1760069;80;28107;-68
2022/10/02 12:39:25;;;;;;;3.47;1.70;;;;;;;16.13;66.38;99637.98;1743529;81;25762;-68
2022/10/02 12:42:00;;;;;;;4.35;1.75;;;;;;;16.00;65.84;99637.34;1755840;81;29519;-68
2022/10/02 12:44:42;;;;;;;4.20;1.77;;;;;;;15.85;66.20;99632.19;1750807;81;25743;-68
2022/10/02 12:47:35;;;;;;;6.03;2.35;;;;;;;16.00;66.92;99642.80;1755356;78;25776;-68
2022/10/02 12:50:35;;;;;;;7.47;3.30;;;;;;;16.28;66.67;99648.00;1759145;80;25926;-67
2022/10/02 12:53:22;;;;;;;4.65;1.80;;;;;;;16.77;67.08;99633.59;1759729;81;25652;-66
2022/10/02 12:56:16;;;;;;;11.68;9.20;;;;;;;17.13;65.40;99632.00;1760185;81;27323;-67
2022/10/02 12:59:11;;;;;;;16.35;15.15;;;;;;;17.16;64.52;99625.22;1759895;80;27224;-67
2022/10/02 13:02:06;;;;;;;3.08;2.25;;;;;;;16.96;63.28;99628.64;1759798;80;25553;-67
2022/10/02 13:05:05;;;;;;;9.58;3.40;;;;;;;16.73;64.20;99630.59;1759770;81;25812;-67
2022/10/02 13:08:10;;;;;;;;;;;;;;;16.57;64.06;99637.56;1705703;83;25633;-68
2022/10/02 13:10:58;;;;;;;7.03;2.22;;;;;;;16.47;64.45;99635.45;1750826;81;27395;-67